createdAt,value
2016-06-08T00:00:16.636Z,1014.35
2016-06-08T00:01:16.687Z,1014.39
2016-06-08T00:02:16.751Z,1014.4
2016-06-08T00:03:16.785Z,1014.42
2016-06-08T00:04:16.850Z,1014.47
2016-06-08T00:05:16.884Z,1014.45
2016-06-08T00:06:16.934Z,1014.47
2016-06-08T00:07:16.983Z,1014.44
2016-06-08T00:08:17.033Z,1014.43
2016-06-08T00:09:17.083Z,1014.44
2016-06-08T00:10:17.116Z,1014.42
2016-06-08T00:11:17.197Z,1014.39
2016-06-08T00:12:17.215Z,1014.42
2016-06-08T00:13:17.296Z,1014.4
2016-06-08T00:14:17.315Z,1014.41
2016-06-08T00:15:17.365Z,1014.38
2016-06-08T00:16:17.414Z,1014.39
2016-06-08T00:17:17.463Z,1014.38
2016-06-08T00:18:17.513Z,1014.34
2016-06-08T00:19:17.562Z,1014.36
2016-06-08T00:20:17.612Z,1014.31
2016-06-08T00:21:17.646Z,1014.34
2016-06-08T00:22:17.696Z,1014.34
2016-06-08T00:23:17.745Z,1014.34
2016-06-08T00:24:17.794Z,1014.32
2016-06-08T00:25:17.845Z,1014.28
2016-06-08T00:26:18.190Z,1014.3
2016-06-08T00:27:17.943Z,1014.27
2016-06-08T00:28:17.992Z,1014.3
2016-06-08T00:29:18.027Z,1014.31
2016-06-08T00:30:18.076Z,1014.28
2016-06-08T00:31:18.126Z,1014.26
2016-06-08T00:32:18.176Z,1014.25
2016-06-08T00:33:18.225Z,1014.24
2016-06-08T00:34:18.275Z,1014.3
2016-06-08T00:35:18.324Z,1014.27
2016-06-08T00:36:18.374Z,1014.3
2016-06-08T00:37:18.424Z,1014.34
2016-06-08T00:38:18.472Z,1014.31
2016-06-08T00:39:18.508Z,1014.35
2016-06-08T00:40:18.557Z,1014.33
2016-06-08T00:41:18.606Z,1014.38
2016-06-08T00:42:19.172Z,1014.36
2016-06-08T00:43:18.705Z,1014.39
2016-06-08T00:44:18.755Z,1014.38
2016-06-08T00:45:18.804Z,1014.35
2016-06-08T00:46:18.854Z,1014.36
2016-06-08T00:47:18.888Z,1014.36
2016-06-08T00:48:18.954Z,1014.33
2016-06-08T00:49:19.049Z,1014.33
2016-06-08T00:50:19.037Z,1014.31
2016-06-08T00:51:19.086Z,1014.29
2016-06-08T00:52:19.135Z,1014.28
2016-06-08T00:53:19.185Z,1014.3
2016-06-08T00:54:19.219Z,1014.31
2016-06-08T00:55:19.269Z,1014.29
2016-06-08T00:56:19.943Z,1014.29
2016-06-08T00:57:19.493Z,1014.29
2016-06-08T00:58:19.418Z,1014.27
2016-06-08T00:59:19.467Z,1014.22
2016-06-08T01:00:19.517Z,1014.24
2016-06-08T01:01:19.566Z,1014.24
2016-06-08T01:02:19.616Z,1014.21
2016-06-08T01:03:19.650Z,1014.19
2016-06-08T01:04:19.700Z,1014.22
2016-06-08T01:05:19.749Z,1014.16
2016-06-08T01:06:19.798Z,1014.14
2016-06-08T01:07:19.847Z,1014.19
2016-06-08T01:08:19.897Z,1014.21
2016-06-08T01:09:19.947Z,1014.19
2016-06-08T01:10:19.996Z,1014.15
2016-06-08T01:11:20.047Z,1014.19
2016-06-08T01:12:20.080Z,1014.19
2016-06-08T01:13:20.130Z,1014.19
2016-06-08T01:14:20.180Z,1014.2
2016-06-08T01:15:20.229Z,1014.16
2016-06-08T01:16:20.279Z,1014.19
2016-06-08T01:17:20.327Z,1014.2
2016-06-08T01:18:20.377Z,1014.19
2016-06-08T01:19:20.412Z,1014.23
2016-06-08T01:20:20.461Z,1014.21
2016-06-08T01:21:20.510Z,1014.21
2016-06-08T01:22:20.560Z,1014.22
2016-06-08T01:23:20.610Z,1014.16
2016-06-08T01:24:20.659Z,1014.17
2016-06-08T01:25:20.709Z,1014.14
2016-06-08T01:26:20.883Z,1014.14
2016-06-08T01:27:20.793Z,1014.13
2016-06-08T01:28:20.842Z,1014.16
2016-06-08T01:29:20.892Z,1014.17
2016-06-08T01:30:20.942Z,1014.19
2016-06-08T01:31:20.990Z,1014.13
2016-06-08T01:32:21.040Z,1014.14
2016-06-08T01:33:21.089Z,1014.18
2016-06-08T01:34:21.123Z,1014.15
2016-06-08T01:35:21.189Z,1014.19
2016-06-08T01:36:21.223Z,1014.2
2016-06-08T01:37:21.272Z,1014.15
2016-06-08T01:38:21.322Z,1014.17
2016-06-08T01:39:21.371Z,1014.15
2016-06-08T01:40:21.421Z,1014.14
2016-06-08T01:41:21.471Z,1014.09
2016-06-08T01:42:21.519Z,1014.15
2016-06-08T01:43:21.570Z,1014.09
2016-06-08T01:44:21.604Z,1014.1
2016-06-08T01:45:21.653Z,1014.1
2016-06-08T01:46:21.703Z,1014.12
2016-06-08T01:47:21.752Z,1014.13
2016-06-08T01:48:21.802Z,1014.08
2016-06-08T01:49:21.898Z,1014.07
2016-06-08T01:50:21.901Z,1014.08
2016-06-08T01:51:21.951Z,1014.07
2016-06-08T01:52:22.001Z,1014.05
2016-06-08T01:53:22.049Z,1014.05
2016-06-08T01:54:22.084Z,1014.02
2016-06-08T01:55:22.133Z,1014
2016-06-08T01:56:22.464Z,1014
2016-06-08T01:57:22.232Z,1013.94
2016-06-08T01:58:22.282Z,1014.02
2016-06-08T01:59:22.332Z,1014.05
2016-06-08T02:00:22.381Z,1014.03
2016-06-08T02:01:22.431Z,1014.07
2016-06-08T02:02:22.481Z,1014.04
2016-06-08T02:03:22.530Z,1014.07
2016-06-08T02:04:22.579Z,1014.05
2016-06-08T02:05:22.628Z,1014.07
2016-06-08T02:06:22.678Z,1014.06
2016-06-08T02:07:22.728Z,1014
2016-06-08T02:08:22.778Z,1014.03
2016-06-08T02:09:22.811Z,1014.06
2016-06-08T02:10:22.861Z,1014.04
2016-06-08T02:11:22.910Z,1014.08
2016-06-08T02:12:23.101Z,1014.07
2016-06-08T02:13:23.010Z,1014.03
2016-06-08T02:14:23.060Z,1014.06
2016-06-08T02:15:23.109Z,1014.03
2016-06-08T02:16:23.158Z,1014.07
2016-06-08T02:17:23.208Z,1014
2016-06-08T02:18:23.258Z,1014.03
2016-06-08T02:19:23.307Z,1014.05
2016-06-08T02:20:23.357Z,1014.03
2016-06-08T02:21:23.406Z,1014.06
2016-06-08T02:22:23.456Z,1014.07
2016-06-08T02:23:23.505Z,1014.05
2016-06-08T02:24:23.540Z,1014.09
2016-06-08T02:25:23.604Z,1014.07
2016-06-08T02:26:23.638Z,1014.06
2016-06-08T02:27:23.687Z,1014.03
2016-06-08T02:28:23.737Z,1014.06
2016-06-08T02:29:23.787Z,1014.06
2016-06-08T02:30:23.836Z,1014.05
2016-06-08T02:31:23.887Z,1014.08
2016-06-08T02:32:23.936Z,1014.07
2016-06-08T02:33:23.986Z,1014.1
2016-06-08T02:34:24.035Z,1014.05
2016-06-08T02:35:24.084Z,1014.05
2016-06-08T02:36:24.119Z,1014.03
2016-06-08T02:37:24.168Z,1014.04
2016-06-08T02:38:24.217Z,1014.02
2016-06-08T02:39:24.267Z,1014.03
2016-06-08T02:40:24.317Z,1014.05
2016-06-08T02:41:24.366Z,1014.04
2016-06-08T02:42:24.416Z,1014.06
2016-06-08T02:43:24.465Z,1014.02
2016-06-08T02:44:24.515Z,1014.04
2016-06-08T02:45:24.565Z,1014.08
2016-06-08T02:46:24.613Z,1014.07
2016-06-08T02:47:24.664Z,1014.07
2016-06-08T02:48:24.713Z,1014.05
2016-06-08T02:49:24.810Z,1014.09
2016-06-08T02:50:24.813Z,1014.06
2016-06-08T02:51:24.862Z,1014.07
2016-06-08T02:52:24.896Z,1014.07
2016-06-08T02:53:24.961Z,1014.07
2016-06-08T02:54:24.995Z,1014.05
2016-06-08T02:55:25.045Z,1014.06
2016-06-08T02:56:25.094Z,1014.07
2016-06-08T02:57:25.143Z,1014.05
2016-06-08T02:58:25.193Z,1014.01
2016-06-08T02:59:25.242Z,1014.05
2016-06-08T03:00:25.292Z,1014.06
2016-06-08T03:01:25.343Z,1014.04
2016-06-08T03:02:25.375Z,1014.05
2016-06-08T03:03:25.426Z,1014.02
2016-06-08T03:04:25.490Z,1014.05
2016-06-08T03:05:25.525Z,1014.03
2016-06-08T03:06:25.575Z,1014.02
2016-06-08T03:07:25.623Z,1014.03
2016-06-08T03:08:25.673Z,1014
2016-06-08T03:09:25.723Z,1013.97
2016-06-08T03:10:25.756Z,1013.99
2016-06-08T03:11:25.822Z,1014
2016-06-08T03:12:25.856Z,1013.98
2016-06-08T03:13:25.921Z,1013.97
2016-06-08T03:14:25.955Z,1014
2016-06-08T03:15:26.004Z,1013.96
2016-06-08T03:16:26.054Z,1013.98
2016-06-08T03:17:26.105Z,1013.95
2016-06-08T03:18:26.153Z,1013.96
2016-06-08T03:19:26.203Z,1013.98
2016-06-08T03:20:26.252Z,1013.96
2016-06-08T03:21:26.302Z,1013.94
2016-06-08T03:22:26.351Z,1013.97
2016-06-08T03:23:26.401Z,1014.03
2016-06-08T03:24:26.435Z,1014.01
2016-06-08T03:25:26.485Z,1014
2016-06-08T03:26:26.535Z,1014.02
2016-06-08T03:27:26.584Z,1014
2016-06-08T03:28:26.634Z,1014.02
2016-06-08T03:29:26.682Z,1014.05
2016-06-08T03:30:26.732Z,1014.08
2016-06-08T03:31:26.781Z,1014.06
2016-06-08T03:32:26.831Z,1014.09
2016-06-08T03:33:26.882Z,1014.1
2016-06-08T03:34:26.915Z,1014.08
2016-06-08T03:35:26.965Z,1014.11
2016-06-08T03:36:27.014Z,1014.11
2016-06-08T03:37:27.064Z,1014.13
2016-06-08T03:38:27.114Z,1014.1
2016-06-08T03:39:27.163Z,1014.16
2016-06-08T03:40:27.212Z,1014.15
2016-06-08T03:41:27.262Z,1014.14
2016-06-08T03:42:27.297Z,1014.12
2016-06-08T03:43:27.345Z,1014.12
2016-06-08T03:44:27.395Z,1014.11
2016-06-08T03:45:27.445Z,1014.12
2016-06-08T03:46:27.494Z,1014.11
2016-06-08T03:47:27.543Z,1014.16
2016-06-08T03:48:27.594Z,1014.11
2016-06-08T03:49:27.690Z,1014.12
2016-06-08T03:50:27.693Z,1014.18
2016-06-08T03:51:27.726Z,1014.16
2016-06-08T03:52:27.791Z,1014.19
2016-06-08T03:53:27.826Z,1014.18
2016-06-08T03:54:27.875Z,1014.16
2016-06-08T03:55:27.924Z,1014.17
2016-06-08T03:56:27.974Z,1014.19
2016-06-08T03:57:28.367Z,1014.17
2016-06-08T03:58:28.090Z,1014.17
2016-06-08T03:59:28.124Z,1014.17
2016-06-08T04:00:28.173Z,1014.18
2016-06-08T04:01:28.222Z,1014.21
2016-06-08T04:02:28.271Z,1014.2
2016-06-08T04:03:28.321Z,1014.22
2016-06-08T04:04:28.370Z,1014.23
2016-06-08T04:05:28.404Z,1014.24
2016-06-08T04:06:28.454Z,1014.26
2016-06-08T04:07:28.504Z,1014.25
2016-06-08T04:08:28.553Z,1014.27
2016-06-08T04:09:28.603Z,1014.25
2016-06-08T04:10:28.653Z,1014.25
2016-06-08T04:11:28.702Z,1014.3
2016-06-08T04:12:28.752Z,1014.3
2016-06-08T04:13:28.800Z,1014.28
2016-06-08T04:14:28.851Z,1014.26
2016-06-08T04:15:28.886Z,1014.28
2016-06-08T04:16:28.934Z,1014.25
2016-06-08T04:17:28.983Z,1014.26
2016-06-08T04:18:29.033Z,1014.26
2016-06-08T04:19:29.083Z,1014.28
2016-06-08T04:20:29.132Z,1014.29
2016-06-08T04:21:29.182Z,1014.3
2016-06-08T04:22:29.232Z,1014.32
2016-06-08T04:23:29.282Z,1014.33
2016-06-08T04:24:29.330Z,1014.29
2016-06-08T04:25:29.380Z,1014.3
2016-06-08T04:26:29.430Z,1014.36
2016-06-08T04:27:29.463Z,1014.39
2016-06-08T04:28:29.513Z,1014.39
2016-06-08T04:29:29.578Z,1014.41
2016-06-08T04:30:29.613Z,1014.36
2016-06-08T04:31:29.663Z,1014.36
2016-06-08T04:32:29.712Z,1014.35
2016-06-08T04:33:29.762Z,1014.35
2016-06-08T04:34:29.811Z,1014.34
2016-06-08T04:35:29.860Z,1014.35
2016-06-08T04:36:29.909Z,1014.38
2016-06-08T04:37:29.959Z,1014.35
2016-06-08T04:38:29.993Z,1014.34
2016-06-08T04:39:30.043Z,1014.31
2016-06-08T04:40:30.092Z,1014.31
2016-06-08T04:41:30.142Z,1014.33
2016-06-08T04:42:30.192Z,1014.3
2016-06-08T04:43:30.241Z,1014.31
2016-06-08T04:44:30.291Z,1014.31
2016-06-08T04:45:30.340Z,1014.33
2016-06-08T04:46:30.390Z,1014.33
2016-06-08T04:47:30.440Z,1014.31
2016-06-08T04:48:30.489Z,1014.33
2016-06-08T04:49:30.585Z,1014.29
2016-06-08T04:50:30.588Z,1014.31
2016-06-08T04:51:30.638Z,1014.34
2016-06-08T04:52:30.671Z,1014.32
2016-06-08T04:53:30.722Z,1014.32
2016-06-08T04:54:30.786Z,1014.31
2016-06-08T04:55:30.821Z,1014.32
2016-06-08T04:56:30.870Z,1014.36
2016-06-08T04:57:30.919Z,1014.31
2016-06-08T04:58:30.969Z,1014.33
2016-06-08T04:59:31.018Z,1014.31
2016-06-08T05:00:31.068Z,1014.31
2016-06-08T05:01:31.101Z,1014.33
2016-06-08T05:02:31.151Z,1014.31
2016-06-08T05:03:31.202Z,1014.34
2016-06-08T05:04:31.251Z,1014.35
2016-06-08T05:05:31.301Z,1014.34
2016-06-08T05:06:31.353Z,1014.35
2016-06-08T05:07:31.413Z,1014.37
2016-06-08T05:08:31.458Z,1014.38
2016-06-08T05:09:31.517Z,1014.35
2016-06-08T05:10:31.578Z,1014.4
2016-06-08T05:11:31.650Z,1014.36
2016-06-08T05:12:32.001Z,1014.4
2016-06-08T05:13:31.741Z,1014.33
2016-06-08T05:14:31.795Z,1014.36
2016-06-08T05:15:31.864Z,1014.34
2016-06-08T05:16:31.901Z,1014.39
2016-06-08T05:17:31.952Z,1014.38
2016-06-08T05:18:32.003Z,1014.4
2016-06-08T05:19:32.053Z,1014.4
2016-06-08T05:20:32.089Z,1014.34
2016-06-08T05:21:32.155Z,1014.39
2016-06-08T05:22:32.188Z,1014.39
2016-06-08T05:23:32.239Z,1014.38
2016-06-08T05:24:32.289Z,1014.35
2016-06-08T05:25:32.339Z,1014.37
2016-06-08T05:26:32.389Z,1014.31
2016-06-08T05:27:32.439Z,1014.33
2016-06-08T05:28:32.723Z,1014.33
2016-06-08T05:29:32.539Z,1014.32
2016-06-08T05:30:32.588Z,1014.32
2016-06-08T05:31:32.638Z,1014.36
2016-06-08T05:32:32.688Z,1014.32
2016-06-08T05:33:32.722Z,1014.3
2016-06-08T05:34:32.771Z,1014.32
2016-06-08T05:35:32.821Z,1014.29
2016-06-08T05:36:32.886Z,1014.3
2016-06-08T05:37:32.937Z,1014.32
2016-06-08T05:38:32.970Z,1014.29
2016-06-08T05:39:33.019Z,1014.31
2016-06-08T05:40:33.070Z,1014.3
2016-06-08T05:41:33.118Z,1014.31
2016-06-08T05:42:33.168Z,1014.29
2016-06-08T05:43:33.217Z,1014.32
2016-06-08T05:44:33.251Z,1014.37
2016-06-08T05:45:33.301Z,1014.35
2016-06-08T05:46:33.351Z,1014.31
2016-06-08T05:47:33.400Z,1014.3
2016-06-08T05:48:33.450Z,1014.31
2016-06-08T05:49:33.500Z,1014.3
2016-06-08T05:50:33.549Z,1014.25
2016-06-08T05:51:33.599Z,1014.27
2016-06-08T05:52:33.648Z,1014.27
2016-06-08T05:53:33.697Z,1014.29
2016-06-08T05:54:33.747Z,1014.26
2016-06-08T05:55:33.796Z,1014.24
2016-06-08T05:56:33.847Z,1014.24
2016-06-08T05:57:33.896Z,1014.26
2016-06-08T05:58:33.930Z,1014.27
2016-06-08T05:59:33.979Z,1014.25
2016-06-08T06:00:34.029Z,1014.25
2016-06-08T06:01:34.079Z,1014.24
2016-06-08T06:02:34.128Z,1014.25
2016-06-08T06:03:34.177Z,1014.23
2016-06-08T06:04:34.226Z,1014.22
2016-06-08T06:05:34.277Z,1014.21
2016-06-08T06:06:34.327Z,1014.23
2016-06-08T06:07:34.376Z,1014.2
2016-06-08T06:08:34.425Z,1014.26
2016-06-08T06:09:34.475Z,1014.21
2016-06-08T06:10:34.540Z,1014.22
2016-06-08T06:11:34.573Z,1014.25
2016-06-08T06:12:34.623Z,1014.19
2016-06-08T06:13:34.673Z,1014.22
2016-06-08T06:14:34.723Z,1014.21
2016-06-08T06:15:34.773Z,1014.25
2016-06-08T06:16:34.822Z,1014.25
2016-06-08T06:17:34.872Z,1014.22
2016-06-08T06:18:34.921Z,1014.22
2016-06-08T06:19:34.955Z,1014.21
2016-06-08T06:20:35.036Z,1014.18
2016-06-08T06:21:35.069Z,1014.17
2016-06-08T06:22:35.119Z,1014.17
2016-06-08T06:23:35.169Z,1014.23
2016-06-08T06:24:35.219Z,1014.23
2016-06-08T06:25:35.268Z,1014.24
2016-06-08T06:26:35.318Z,1014.25
2016-06-08T06:27:35.352Z,1014.21
2016-06-08T06:28:35.416Z,1014.29
2016-06-08T06:29:35.466Z,1014.25
2016-06-08T06:30:35.515Z,1014.3
2016-06-08T06:31:35.565Z,1014.3
2016-06-08T06:32:35.616Z,1014.34
2016-06-08T06:33:35.665Z,1014.31
2016-06-08T06:34:35.714Z,1014.34
2016-06-08T06:35:35.764Z,1014.32
2016-06-08T06:36:35.813Z,1014.31
2016-06-08T06:37:35.848Z,1014.32
2016-06-08T06:38:35.912Z,1014.32
2016-06-08T06:39:35.962Z,1014.31
2016-06-08T06:40:36.012Z,1014.29
2016-06-08T06:41:36.061Z,1014.2
2016-06-08T06:42:36.111Z,1014.22
2016-06-08T06:43:36.160Z,1014.2
2016-06-08T06:44:36.210Z,1014.19
2016-06-08T06:45:36.259Z,1014.2
2016-06-08T06:46:36.309Z,1014.24
2016-06-08T06:47:36.359Z,1014.22
2016-06-08T06:48:36.408Z,1014.24
2016-06-08T06:49:36.505Z,1014.22
2016-06-08T06:50:36.507Z,1014.26
2016-06-08T06:51:36.556Z,1014.27
2016-06-08T06:52:36.591Z,1014.28
2016-06-08T06:53:36.656Z,1014.29
2016-06-08T06:54:36.706Z,1014.28
2016-06-08T06:55:36.755Z,1014.28
2016-06-08T06:56:36.805Z,1014.27
2016-06-08T06:57:36.854Z,1014.3
2016-06-08T06:58:36.904Z,1014.31
2016-06-08T06:59:36.953Z,1014.33
2016-06-08T07:00:37.002Z,1014.32
2016-06-08T07:01:37.052Z,1014.32
2016-06-08T07:02:37.102Z,1014.31
2016-06-08T07:03:37.152Z,1014.32
2016-06-08T07:04:37.202Z,1014.28
2016-06-08T07:05:37.250Z,1014.27
2016-06-08T07:06:37.285Z,1014.23
2016-06-08T07:07:37.335Z,1014.26
2016-06-08T07:08:37.399Z,1014.22
2016-06-08T07:09:37.449Z,1014.21
2016-06-08T07:10:37.482Z,1014.25
2016-06-08T07:11:37.532Z,1014.27
2016-06-08T07:12:37.582Z,1014.22
2016-06-08T07:13:37.631Z,1014.24
2016-06-08T07:14:37.681Z,1014.22
2016-06-08T07:15:37.730Z,1014.26
2016-06-08T07:16:37.780Z,1014.19
2016-06-08T07:17:37.846Z,1014.16
2016-06-08T07:18:37.879Z,1014.18
2016-06-08T07:19:37.934Z,1014.19
2016-06-08T07:20:37.982Z,1014.16
2016-06-08T07:21:38.034Z,1014.15
2016-06-08T07:22:38.078Z,1014.18
2016-06-08T07:23:38.122Z,1014.19
2016-06-08T07:24:38.154Z,1014.16
2016-06-08T07:25:38.219Z,1014.15
2016-06-08T07:26:38.284Z,1014.18
2016-06-08T07:27:38.318Z,1014.19
2016-06-08T07:28:38.556Z,1014.17
2016-06-08T07:29:38.417Z,1014.24
2016-06-08T07:30:38.467Z,1014.24
2016-06-08T07:31:38.532Z,1014.23
2016-06-08T07:32:38.581Z,1014.23
2016-06-08T07:33:38.647Z,1014.25
2016-06-08T07:34:38.666Z,1014.26
2016-06-08T07:35:38.720Z,1014.22
2016-06-08T07:36:38.770Z,1014.25
2016-06-08T07:37:38.820Z,1014.25
2016-06-08T07:38:38.870Z,1014.21
2016-06-08T07:39:38.919Z,1014.26
2016-06-08T07:40:38.969Z,1014.26
2016-06-08T07:41:39.008Z,1014.23
2016-06-08T07:42:39.072Z,1014.24
2016-06-08T07:43:39.122Z,1014.25
2016-06-08T07:44:39.156Z,1014.22
2016-06-08T07:45:39.221Z,1014.23
2016-06-08T07:46:39.271Z,1014.25
2016-06-08T07:47:39.320Z,1014.25
2016-06-08T07:48:39.370Z,1014.21
2016-06-08T07:49:45.076Z,1014.26
2016-06-08T07:50:39.469Z,1014.25
2016-06-08T07:51:39.513Z,1014.27
2016-06-08T07:52:39.563Z,1014.23
2016-06-08T07:53:39.613Z,1014.21
2016-06-08T07:54:39.881Z,1014.22
2016-06-08T07:55:39.712Z,1014.28
2016-06-08T07:56:39.764Z,1014.2
2016-06-08T07:57:39.812Z,1014.24
2016-06-08T07:58:39.878Z,1014.23
2016-06-08T07:59:39.897Z,1014.18
2016-06-08T08:00:39.961Z,1014.2
2016-06-08T08:01:40.011Z,1014.19
2016-06-08T08:02:40.045Z,1014.2
2016-06-08T08:03:40.095Z,1014.27
2016-06-08T08:04:40.160Z,1014.29
2016-06-08T08:05:40.225Z,1014.31
2016-06-08T08:06:40.259Z,1014.25
2016-06-08T08:07:40.309Z,1014.24
2016-06-08T08:08:40.359Z,1014.19
2016-06-08T08:09:40.408Z,1014.18
2016-06-08T08:10:40.458Z,1014.23
2016-06-08T08:11:40.510Z,1014.29
2016-06-08T08:12:40.560Z,1014.29
2016-06-08T08:13:40.641Z,1014.24
2016-06-08T08:14:40.666Z,1014.3
2016-06-08T08:15:40.700Z,1014.27
2016-06-08T08:16:40.749Z,1014.25
2016-06-08T08:17:40.799Z,1014.27
2016-06-08T08:18:40.849Z,1014.27
2016-06-08T08:19:40.914Z,1014.27
2016-06-08T08:20:40.963Z,1014.25
2016-06-08T08:21:41.013Z,1014.33
2016-06-08T08:22:41.062Z,1014.34
2016-06-08T08:23:41.113Z,1014.32
2016-06-08T08:24:41.178Z,1014.28
2016-06-08T08:25:41.211Z,1014.26
2016-06-08T08:26:41.262Z,1014.21
2016-06-08T08:27:41.326Z,1014.28
2016-06-08T08:28:41.345Z,1014.24
2016-06-08T08:29:41.410Z,1014.22
2016-06-08T08:30:41.459Z,1014.28
2016-06-08T08:31:41.509Z,1014.21
2016-06-08T08:32:41.558Z,1014.21
2016-06-08T08:33:41.608Z,1014.23
2016-06-08T08:34:41.658Z,1014.25
2016-06-08T08:35:41.706Z,1014.24
2016-06-08T08:36:41.756Z,1014.22
2016-06-08T08:37:41.806Z,1014.19
2016-06-08T08:38:41.856Z,1014.23
2016-06-08T08:39:41.906Z,1014.23
2016-06-08T08:40:41.955Z,1014.25
2016-06-08T08:41:42.005Z,1014.26
2016-06-08T08:42:42.070Z,1014.26
2016-06-08T08:43:42.104Z,1014.24
2016-06-08T08:44:42.310Z,1014.3
2016-06-08T08:45:42.219Z,1014.28
2016-06-08T08:46:42.268Z,1014.3
2016-06-08T08:47:42.318Z,1014.29
2016-06-08T08:48:42.366Z,1014.26
2016-06-08T08:49:42.416Z,1014.27
2016-06-08T08:50:42.466Z,1014.26
2016-06-08T08:51:42.515Z,1014.29
2016-06-08T08:52:42.565Z,1014.25
2016-06-08T08:53:42.615Z,1014.26
2016-06-08T08:54:42.664Z,1014.23
2016-06-08T08:55:42.714Z,1014.22
2016-06-08T08:56:42.763Z,1014.22
2016-06-08T08:57:42.813Z,1014.24
2016-06-08T08:58:42.863Z,1014.23
2016-06-08T08:59:42.929Z,1014.18
2016-06-08T09:00:42.977Z,1014.22
2016-06-08T09:01:43.027Z,1014.21
2016-06-08T09:02:43.077Z,1014.23
2016-06-08T09:03:43.126Z,1014.22
2016-06-08T09:04:43.176Z,1014.23
2016-06-08T09:05:43.225Z,1014.29
2016-06-08T09:06:43.275Z,1014.26
2016-06-08T09:07:43.325Z,1014.23
2016-06-08T09:08:43.374Z,1014.32
2016-06-08T09:09:43.439Z,1014.25
2016-06-08T09:10:43.473Z,1014.28
2016-06-08T09:11:43.538Z,1014.27
2016-06-08T09:12:43.588Z,1014.23
2016-06-08T09:13:43.622Z,1014.32
2016-06-08T09:14:43.687Z,1014.31
2016-06-08T09:15:43.736Z,1014.36
2016-06-08T09:16:43.786Z,1014.31
2016-06-08T09:17:43.836Z,1014.28
2016-06-08T09:18:43.885Z,1014.32
2016-06-08T09:19:43.935Z,1014.35
2016-06-08T09:20:44.000Z,1014.37
2016-06-08T09:21:44.035Z,1014.35
2016-06-08T09:22:44.083Z,1014.34
2016-06-08T09:23:44.149Z,1014.32
2016-06-08T09:24:44.198Z,1014.3
2016-06-08T09:25:44.248Z,1014.29
2016-06-08T09:26:44.298Z,1014.24
2016-06-08T09:27:44.347Z,1014.25
2016-06-08T09:28:44.553Z,1014.23
2016-06-08T09:29:44.445Z,1014.2
2016-06-08T09:30:44.496Z,1014.23
2016-06-08T09:31:44.545Z,1014.24
2016-06-08T09:32:44.595Z,1014.23
2016-06-08T09:33:44.644Z,1014.16
2016-06-08T09:34:44.694Z,1014.18
2016-06-08T09:35:44.743Z,1014.21
2016-06-08T09:36:44.808Z,1014.22
2016-06-08T09:37:44.858Z,1014.21
2016-06-08T09:38:44.908Z,1014.22
2016-06-08T09:39:44.958Z,1014.21
2016-06-08T09:40:45.007Z,1014.23
2016-06-08T09:41:45.056Z,1014.18
2016-06-08T09:42:45.106Z,1014.15
2016-06-08T09:43:45.156Z,1014.19
2016-06-08T09:44:45.393Z,1014.17
2016-06-08T09:45:45.270Z,1014.16
2016-06-08T09:46:45.320Z,1014.16
2016-06-08T09:47:45.369Z,1014.16
2016-06-08T09:48:45.419Z,1014.12
2016-06-08T09:49:45.469Z,1014.16
2016-06-08T09:50:45.518Z,1014.17
2016-06-08T09:51:45.568Z,1014.15
2016-06-08T09:52:45.617Z,1014.11
2016-06-08T09:53:45.683Z,1014.12
2016-06-08T09:54:45.732Z,1014.18
2016-06-08T09:55:45.782Z,1014.18
2016-06-08T09:56:45.831Z,1014.15
2016-06-08T09:57:45.881Z,1014.11
2016-06-08T09:58:45.930Z,1014.13
2016-06-08T09:59:45.995Z,1014.14
2016-06-08T10:00:46.045Z,1014.09
2016-06-08T10:01:46.095Z,1014.18
2016-06-08T10:02:46.145Z,1014.16
2016-06-08T10:03:46.193Z,1014.15
2016-06-08T10:04:46.243Z,1014.14
2016-06-08T10:05:46.293Z,1014.17
2016-06-08T10:06:46.343Z,1014.14
2016-06-08T10:07:46.393Z,1014.19
2016-06-08T10:08:46.441Z,1014.2
2016-06-08T10:09:46.492Z,1014.12
2016-06-08T10:10:46.556Z,1014.15
2016-06-08T10:11:46.606Z,1014.12
2016-06-08T10:12:46.656Z,1014.13
2016-06-08T10:13:46.705Z,1014.13
2016-06-08T10:14:47.270Z,1014.08
2016-06-08T10:15:46.805Z,1014.11
2016-06-08T10:16:46.854Z,1014.09
2016-06-08T10:17:46.919Z,1014.11
2016-06-08T10:18:46.968Z,1014.04
2016-06-08T10:19:47.018Z,1014.08
2016-06-08T10:20:47.068Z,1014.1
2016-06-08T10:21:47.117Z,1014.08
2016-06-08T10:22:47.166Z,1014.01
2016-06-08T10:23:47.216Z,1014.03
2016-06-08T10:24:47.281Z,1013.94
2016-06-08T10:25:47.331Z,1014.01
2016-06-08T10:26:47.380Z,1013.99
2016-06-08T10:27:47.430Z,1013.97
2016-06-08T10:28:47.480Z,1014.04
2016-06-08T10:29:47.576Z,1013.98
2016-06-08T10:30:47.595Z,1014
2016-06-08T10:31:47.643Z,1014
2016-06-08T10:32:47.694Z,1014.04
2016-06-08T10:33:47.743Z,1014.04
2016-06-08T10:34:47.793Z,1014.01
2016-06-08T10:35:47.858Z,1014.01
2016-06-08T10:36:47.907Z,1014.04
2016-06-08T10:37:47.957Z,1013.95
2016-06-08T10:38:48.007Z,1014
2016-06-08T10:39:48.072Z,1013.93
2016-06-08T10:40:48.122Z,1013.93
2016-06-08T10:41:48.171Z,1013.93
2016-06-08T10:42:48.220Z,1013.93
2016-06-08T10:43:48.270Z,1013.92
2016-06-08T10:44:48.336Z,1013.91
2016-06-08T10:45:48.385Z,1013.91
2016-06-08T10:46:48.434Z,1013.9
2016-06-08T10:47:48.483Z,1013.91
2016-06-08T10:48:48.549Z,1013.91
2016-06-08T10:49:48.583Z,1013.93
2016-06-08T10:50:48.649Z,1013.93
2016-06-08T10:51:48.697Z,1013.88
2016-06-08T10:52:48.747Z,1013.94
2016-06-08T10:53:48.797Z,1013.95
2016-06-08T10:54:48.847Z,1013.93
2016-06-08T10:55:48.896Z,1013.92
2016-06-08T10:56:48.960Z,1013.91
2016-06-08T10:57:49.010Z,1013.95
2016-06-08T10:58:49.310Z,1013.88
2016-06-08T10:59:49.110Z,1013.93
2016-06-08T11:00:49.160Z,1013.91
2016-06-08T11:01:49.225Z,1013.93
2016-06-08T11:02:49.274Z,1013.97
2016-06-08T11:03:49.324Z,1013.98
2016-06-08T11:04:49.373Z,1013.9
2016-06-08T11:05:49.439Z,1013.85
2016-06-08T11:06:49.488Z,1013.9
2016-06-08T11:07:49.538Z,1013.87
2016-06-08T11:08:49.587Z,1013.86
2016-06-08T11:09:49.653Z,1013.86
2016-06-08T11:10:49.686Z,1013.84
2016-06-08T11:11:49.751Z,1013.87
2016-06-08T11:12:49.801Z,1013.86
2016-06-08T11:13:49.850Z,1013.83
2016-06-08T11:14:49.900Z,1013.88
2016-06-08T11:15:49.950Z,1013.83
2016-06-08T11:16:49.999Z,1013.87
2016-06-08T11:17:50.064Z,1013.83
2016-06-08T11:18:50.114Z,1013.9
2016-06-08T11:19:50.163Z,1013.95
2016-06-08T11:20:50.214Z,1013.91
2016-06-08T11:21:50.264Z,1013.86
2016-06-08T11:22:50.327Z,1013.85
2016-06-08T11:23:50.378Z,1013.9
2016-06-08T11:24:50.427Z,1013.92
2016-06-08T11:25:50.477Z,1013.9
2016-06-08T11:26:50.542Z,1013.91
2016-06-08T11:27:50.591Z,1013.89
2016-06-08T11:28:50.641Z,1013.93
2016-06-08T11:29:50.691Z,1013.89
2016-06-08T11:30:50.756Z,1013.85
2016-06-08T11:31:50.805Z,1013.9
2016-06-08T11:32:50.855Z,1013.85
2016-06-08T11:33:50.904Z,1013.84
2016-06-08T11:34:50.970Z,1013.85
2016-06-08T11:35:51.020Z,1013.83
2016-06-08T11:36:51.068Z,1013.87
2016-06-08T11:37:51.118Z,1013.86
2016-06-08T11:38:51.183Z,1013.86
2016-06-08T11:39:51.233Z,1013.87
2016-06-08T11:40:51.284Z,1013.86
2016-06-08T11:41:51.332Z,1013.89
2016-06-08T11:42:51.398Z,1013.85
2016-06-08T11:43:51.447Z,1013.86
2016-06-08T11:44:51.512Z,1013.88
2016-06-08T11:45:51.547Z,1013.91
2016-06-08T11:46:51.612Z,1013.87
2016-06-08T11:47:51.661Z,1013.87
2016-06-08T11:48:51.711Z,1013.85
2016-06-08T11:49:51.822Z,1013.79
2016-06-08T11:50:51.841Z,1013.88
2016-06-08T11:51:51.875Z,1013.84
2016-06-08T11:52:51.940Z,1013.81
2016-06-08T11:53:51.989Z,1013.83
2016-06-08T11:54:52.055Z,1013.88
2016-06-08T11:55:52.104Z,1013.83
2016-06-08T11:56:52.170Z,1013.85
2016-06-08T11:57:52.204Z,1013.89
2016-06-08T11:58:52.284Z,1013.87
2016-06-08T11:59:52.318Z,1013.8
2016-06-08T12:00:52.368Z,1013.82
2016-06-08T12:01:52.432Z,1013.82
2016-06-08T12:02:52.483Z,1013.74
2016-06-08T12:03:52.548Z,1013.77
2016-06-08T12:04:52.597Z,1013.71
2016-06-08T12:05:52.663Z,1013.71
2016-06-08T12:06:52.712Z,1013.75
2016-06-08T12:07:52.762Z,1013.78
2016-06-08T12:08:52.827Z,1013.71